sensor_id;sensor_type;location;lat;lon;timestamp;P1;durP1;ratioP1;P2;durP2;ratioP2
4895;SDS011;2463;49.948;8.472;2023-04-03T00:00:39;92.03;;;5.55;;
4895;SDS011;2463;49.948;8.472;2023-04-03T00:03:06;92.43;;;5.95;;
4895;SDS011;2463;49.948;8.472;2023-04-03T00:05:33;92.50;;;5.97;;
4895;SDS011;2463;49.948;8.472;2023-04-03T00:07:59;96.05;;;5.75;;
4895;SDS011;2463;49.948;8.472;2023-04-03T00:10:28;92.03;;;5.55;;
4895;SDS011;2463;49.948;8.472;2023-04-03T00:12:54;95.28;;;6.00;;
4895;SDS011;2463;49.948;8.472;2023-04-03T00:15:21;97.32;;;5.78;;
4895;SDS011;2463;49.948;8.472;2023-04-03T00:17:47;93.43;;;5.70;;
4895;SDS011;2463;49.948;8.472;2023-04-03T00:20:14;92.80;;;6.38;;
4895;SDS011;2463;49.948;8.472;2023-04-03T00:22:41;92.03;;;5.72;;
4895;SDS011;2463;49.948;8.472;2023-04-03T00:25:08;93.28;;;5.70;;
4895;SDS011;2463;49.948;8.472;2023-04-03T00:27:38;91.85;;;6.25;;
4895;SDS011;2463;49.948;8.472;2023-04-03T00:30:06;93.53;;;5.82;;
4895;SDS011;2463;49.948;8.472;2023-04-03T00:32:34;92.07;;;5.75;;
4895;SDS011;2463;49.948;8.472;2023-04-03T00:35:01;93.88;;;5.60;;
4895;SDS011;2463;49.948;8.472;2023-04-03T00:37:28;91.85;;;5.40;;
4895;SDS011;2463;49.948;8.472;2023-04-03T00:39:55;92.03;;;5.55;;
4895;SDS011;2463;49.948;8.472;2023-04-03T00:42:22;91.32;;;5.80;;
4895;SDS011;2463;49.948;8.472;2023-04-03T00:47:16;92.40;;;5.68;;
4895;SDS011;2463;49.948;8.472;2023-04-03T00:49:44;92.53;;;5.90;;
4895;SDS011;2463;49.948;8.472;2023-04-03T00:52:12;91.25;;;5.43;;
4895;SDS011;2463;49.948;8.472;2023-04-03T00:54:42;91.70;;;5.30;;
4895;SDS011;2463;49.948;8.472;2023-04-03T00:57:11;96.95;;;5.97;;
4895;SDS011;2463;49.948;8.472;2023-04-03T00:59:40;99.15;;;5.65;;
4895;SDS011;2463;49.948;8.472;2023-04-03T01:02:10;96.65;;;6.03;;
4895;SDS011;2463;49.948;8.472;2023-04-03T01:04:38;91.68;;;5.90;;
4895;SDS011;2463;49.948;8.472;2023-04-03T01:07:08;92.18;;;5.75;;
4895;SDS011;2463;49.948;8.472;2023-04-03T01:09:38;92.13;;;6.32;;
4895;SDS011;2463;49.948;8.472;2023-04-03T01:12:41;93.15;;;5.57;;
4895;SDS011;2463;49.948;8.472;2023-04-03T01:15:02;92.72;;;5.97;;
4895;SDS011;2463;49.948;8.472;2023-04-03T01:17:34;92.13;;;5.68;;
4895;SDS011;2463;49.948;8.472;2023-04-03T01:25:55;92.07;;;5.60;;
4895;SDS011;2463;49.948;8.472;2023-04-03T01:28:27;91.43;;;5.43;;
4895;SDS011;2463;49.948;8.472;2023-04-03T01:33:47;97.75;;;5.40;;
4895;SDS011;2463;49.948;8.472;2023-04-03T01:36:19;91.68;;;5.50;;
4895;SDS011;2463;49.948;8.472;2023-04-03T01:38:48;98.63;;;6.00;;
4895;SDS011;2463;49.948;8.472;2023-04-03T01:41:15;92.30;;;5.57;;
4895;SDS011;2463;49.948;8.472;2023-04-03T01:43:42;93.28;;;5.70;;
4895;SDS011;2463;49.948;8.472;2023-04-03T01:46:09;92.15;;;5.90;;
4895;SDS011;2463;49.948;8.472;2023-04-03T01:48:36;93.20;;;5.68;;
4895;SDS011;2463;49.948;8.472;2023-04-03T01:51:03;92.15;;;5.50;;
4895;SDS011;2463;49.948;8.472;2023-04-03T01:53:29;93.65;;;5.63;;
4895;SDS011;2463;49.948;8.472;2023-04-03T01:55:56;94.88;;;5.70;;
4895;SDS011;2463;49.948;8.472;2023-04-03T01:58:23;92.78;;;5.40;;
4895;SDS011;2463;49.948;8.472;2023-04-03T02:00:50;92.43;;;5.55;;
4895;SDS011;2463;49.948;8.472;2023-04-03T02:03:17;94.00;;;5.75;;
4895;SDS011;2463;49.948;8.472;2023-04-03T02:05:45;93.88;;;5.70;;
4895;SDS011;2463;49.948;8.472;2023-04-03T02:08:11;93.00;;;5.35;;
4895;SDS011;2463;49.948;8.472;2023-04-03T02:10:39;92.75;;;5.70;;
4895;SDS011;2463;49.948;8.472;2023-04-03T02:13:05;91.70;;;5.53;;
4895;SDS011;2463;49.948;8.472;2023-04-03T02:15:32;92.03;;;5.57;;
4895;SDS011;2463;49.948;8.472;2023-04-03T02:17:59;91.78;;;5.60;;
4895;SDS011;2463;49.948;8.472;2023-04-03T02:20:25;94.57;;;5.90;;
4895;SDS011;2463;49.948;8.472;2023-04-03T02:22:52;93.88;;;5.40;;
4895;SDS011;2463;49.948;8.472;2023-04-03T02:25:19;93.18;;;5.95;;
4895;SDS011;2463;49.948;8.472;2023-04-03T02:27:46;91.97;;;5.35;;
4895;SDS011;2463;49.948;8.472;2023-04-03T02:30:13;94.43;;;5.75;;
4895;SDS011;2463;49.948;8.472;2023-04-03T02:32:41;92.15;;;5.50;;
4895;SDS011;2463;49.948;8.472;2023-04-03T02:35:08;92.20;;;5.55;;
4895;SDS011;2463;49.948;8.472;2023-04-03T02:37:36;94.90;;;5.80;;
4895;SDS011;2463;49.948;8.472;2023-04-03T02:40:03;93.45;;;5.95;;
4895;SDS011;2463;49.948;8.472;2023-04-03T02:42:31;93.25;;;5.95;;
4895;SDS011;2463;49.948;8.472;2023-04-03T02:44:58;93.15;;;5.60;;
4895;SDS011;2463;49.948;8.472;2023-04-03T02:47:26;93.28;;;5.45;;
4895;SDS011;2463;49.948;8.472;2023-04-03T02:49:53;93.03;;;5.50;;
4895;SDS011;2463;49.948;8.472;2023-04-03T02:52:20;92.45;;;5.65;;
4895;SDS011;2463;49.948;8.472;2023-04-03T02:54:47;92.80;;;5.63;;
4895;SDS011;2463;49.948;8.472;2023-04-03T02:57:14;92.53;;;5.93;;
4895;SDS011;2463;49.948;8.472;2023-04-03T02:59:41;92.72;;;6.53;;
4895;SDS011;2463;49.948;8.472;2023-04-03T03:02:08;91.78;;;5.50;;
4895;SDS011;2463;49.948;8.472;2023-04-03T03:04:35;92.53;;;5.68;;
4895;SDS011;2463;49.948;8.472;2023-04-03T03:07:02;94.68;;;6.00;;
4895;SDS011;2463;49.948;8.472;2023-04-03T03:09:29;91.65;;;5.55;;
4895;SDS011;2463;49.948;8.472;2023-04-03T03:11:56;92.70;;;5.68;;
4895;SDS011;2463;49.948;8.472;2023-04-03T03:14:23;94.85;;;7.10;;
4895;SDS011;2463;49.948;8.472;2023-04-03T03:16:50;91.95;;;5.50;;
4895;SDS011;2463;49.948;8.472;2023-04-03T03:19:17;94.63;;;5.88;;
4895;SDS011;2463;49.948;8.472;2023-04-03T03:21:44;92.75;;;5.70;;
4895;SDS011;2463;49.948;8.472;2023-04-03T03:24:10;96.78;;;6.25;;
4895;SDS011;2463;49.948;8.472;2023-04-03T03:26:38;92.85;;;5.55;;
4895;SDS011;2463;49.948;8.472;2023-04-03T03:29:04;91.95;;;5.60;;
4895;SDS011;2463;49.948;8.472;2023-04-03T03:31:31;94.30;;;5.90;;
4895;SDS011;2463;49.948;8.472;2023-04-03T03:33:58;93.47;;;5.85;;
4895;SDS011;2463;49.948;8.472;2023-04-03T03:36:24;94.70;;;5.50;;
4895;SDS011;2463;49.948;8.472;2023-04-03T03:38:51;91.93;;;5.78;;
4895;SDS011;2463;49.948;8.472;2023-04-03T03:41:18;93.15;;;5.70;;
4895;SDS011;2463;49.948;8.472;2023-04-03T03:43:45;95.35;;;5.40;;
4895;SDS011;2463;49.948;8.472;2023-04-03T03:46:11;91.53;;;5.60;;
4895;SDS011;2463;49.948;8.472;2023-04-03T03:48:38;90.65;;;5.20;;
4895;SDS011;2463;49.948;8.472;2023-04-03T03:51:05;92.40;;;5.55;;
4895;SDS011;2463;49.948;8.472;2023-04-03T03:53:32;92.55;;;5.30;;
4895;SDS011;2463;49.948;8.472;2023-04-03T03:55:59;93.18;;;5.60;;
4895;SDS011;2463;49.948;8.472;2023-04-03T03:58:26;91.85;;;5.30;;
4895;SDS011;2463;49.948;8.472;2023-04-03T04:00:52;99.20;;;5.45;;
4895;SDS011;2463;49.948;8.472;2023-04-03T04:03:19;92.32;;;5.30;;
4895;SDS011;2463;49.948;8.472;2023-04-03T04:05:47;92.55;;;5.57;;
4895;SDS011;2463;49.948;8.472;2023-04-03T04:08:13;95.50;;;5.70;;
4895;SDS011;2463;49.948;8.472;2023-04-03T04:10:40;94.68;;;5.80;;
4895;SDS011;2463;49.948;8.472;2023-04-03T04:13:07;98.65;;;5.50;;
4895;SDS011;2463;49.948;8.472;2023-04-03T04:15:34;91.22;;;5.15;;
4895;SDS011;2463;49.948;8.472;2023-04-03T04:18:01;91.45;;;5.50;;
4895;SDS011;2463;49.948;8.472;2023-04-03T04:20:28;92.10;;;5.47;;
4895;SDS011;2463;49.948;8.472;2023-04-03T04:22:55;91.68;;;5.32;;
4895;SDS011;2463;49.948;8.472;2023-04-03T04:25:21;92.75;;;5.63;;
4895;SDS011;2463;49.948;8.472;2023-04-03T04:27:48;92.53;;;5.25;;
4895;SDS011;2463;49.948;8.472;2023-04-03T04:30:15;94.40;;;5.45;;
4895;SDS011;2463;49.948;8.472;2023-04-03T04:32:41;91.80;;;5.80;;
4895;SDS011;2463;49.948;8.472;2023-04-03T04:35:08;95.13;;;6.07;;
4895;SDS011;2463;49.948;8.472;2023-04-03T04:37:35;94.30;;;5.03;;
4895;SDS011;2463;49.948;8.472;2023-04-03T04:40:02;93.03;;;6.28;;
4895;SDS011;2463;49.948;8.472;2023-04-03T04:42:29;93.78;;;5.55;;
4895;SDS011;2463;49.948;8.472;2023-04-03T04:44:55;96.03;;;5.78;;
4895;SDS011;2463;49.948;8.472;2023-04-03T04:47:22;93.20;;;5.75;;
4895;SDS011;2463;49.948;8.472;2023-04-03T04:49:49;96.22;;;6.35;;
4895;SDS011;2463;49.948;8.472;2023-04-03T04:52:16;95.47;;;5.40;;
4895;SDS011;2463;49.948;8.472;2023-04-03T04:54:42;95.35;;;6.47;;
4895;SDS011;2463;49.948;8.472;2023-04-03T04:57:11;94.25;;;5.60;;
4895;SDS011;2463;49.948;8.472;2023-04-03T04:59:37;93.32;;;5.53;;
4895;SDS011;2463;49.948;8.472;2023-04-03T05:02:04;100.13;;;5.78;;
4895;SDS011;2463;49.948;8.472;2023-04-03T05:04:31;91.95;;;5.20;;
4895;SDS011;2463;49.948;8.472;2023-04-03T05:06:58;92.40;;;5.47;;
4895;SDS011;2463;49.948;8.472;2023-04-03T05:09:25;94.18;;;5.60;;
4895;SDS011;2463;49.948;8.472;2023-04-03T05:11:52;94.68;;;5.50;;
4895;SDS011;2463;49.948;8.472;2023-04-03T05:14:18;93.65;;;5.72;;
4895;SDS011;2463;49.948;8.472;2023-04-03T05:16:45;94.10;;;5.60;;
4895;SDS011;2463;49.948;8.472;2023-04-03T05:19:12;93.80;;;6.00;;
4895;SDS011;2463;49.948;8.472;2023-04-03T05:21:39;93.22;;;5.43;;
4895;SDS011;2463;49.948;8.472;2023-04-03T05:24:06;95.80;;;6.22;;
4895;SDS011;2463;49.948;8.472;2023-04-03T05:26:35;91.93;;;5.60;;
4895;SDS011;2463;49.948;8.472;2023-04-03T05:29:01;92.90;;;5.30;;
4895;SDS011;2463;49.948;8.472;2023-04-03T05:31:28;92.63;;;5.35;;
4895;SDS011;2463;49.948;8.472;2023-04-03T05:33:56;98.05;;;6.10;;
4895;SDS011;2463;49.948;8.472;2023-04-03T05:36:22;92.63;;;5.40;;
4895;SDS011;2463;49.948;8.472;2023-04-03T05:38:49;95.68;;;6.72;;
4895;SDS011;2463;49.948;8.472;2023-04-03T05:41:17;104.13;;;7.32;;
4895;SDS011;2463;49.948;8.472;2023-04-03T05:43:44;92.88;;;5.60;;
4895;SDS011;2463;49.948;8.472;2023-04-03T05:46:11;95.90;;;5.90;;
4895;SDS011;2463;49.948;8.472;2023-04-03T05:48:39;94.80;;;5.75;;
4895;SDS011;2463;49.948;8.472;2023-04-03T05:51:06;96.30;;;6.03;;
4895;SDS011;2463;49.948;8.472;2023-04-03T05:53:34;96.18;;;6.90;;
4895;SDS011;2463;49.948;8.472;2023-04-03T05:56:05;93.93;;;5.50;;
4895;SDS011;2463;49.948;8.472;2023-04-03T05:58:32;93.57;;;6.05;;
4895;SDS011;2463;49.948;8.472;2023-04-03T06:00:58;93.82;;;5.70;;
4895;SDS011;2463;49.948;8.472;2023-04-03T06:03:25;93.22;;;5.68;;
4895;SDS011;2463;49.948;8.472;2023-04-03T06:05:52;92.05;;;5.68;;
4895;SDS011;2463;49.948;8.472;2023-04-03T06:08:19;93.22;;;5.70;;
4895;SDS011;2463;49.948;8.472;2023-04-03T06:10:46;92.55;;;5.80;;
4895;SDS011;2463;49.948;8.472;2023-04-03T06:13:12;94.03;;;5.85;;
4895;SDS011;2463;49.948;8.472;2023-04-03T06:15:39;94.35;;;5.30;;
4895;SDS011;2463;49.948;8.472;2023-04-03T06:18:06;92.80;;;5.43;;
4895;SDS011;2463;49.948;8.472;2023-04-03T06:20:33;93.55;;;5.60;;
4895;SDS011;2463;49.948;8.472;2023-04-03T06:23:00;95.85;;;5.30;;
4895;SDS011;2463;49.948;8.472;2023-04-03T06:25:26;94.53;;;6.90;;
4895;SDS011;2463;49.948;8.472;2023-04-03T06:27:53;91.63;;;5.03;;
4895;SDS011;2463;49.948;8.472;2023-04-03T06:30:21;96.65;;;6.15;;
4895;SDS011;2463;49.948;8.472;2023-04-03T06:32:48;91.20;;;5.50;;
4895;SDS011;2463;49.948;8.472;2023-04-03T06:35:15;93.68;;;6.28;;
4895;SDS011;2463;49.948;8.472;2023-04-03T06:37:42;92.55;;;5.95;;
4895;SDS011;2463;49.948;8.472;2023-04-03T06:40:12;92.40;;;5.40;;
4895;SDS011;2463;49.948;8.472;2023-04-03T06:42:47;91.40;;;5.95;;
4895;SDS011;2463;49.948;8.472;2023-04-03T06:45:14;93.40;;;5.72;;
4895;SDS011;2463;49.948;8.472;2023-04-03T06:47:41;92.43;;;5.60;;
4895;SDS011;2463;49.948;8.472;2023-04-03T06:50:09;95.85;;;5.78;;
4895;SDS011;2463;49.948;8.472;2023-04-03T06:52:37;94.72;;;6.07;;
4895;SDS011;2463;49.948;8.472;2023-04-03T06:55:06;98.38;;;5.63;;
4895;SDS011;2463;49.948;8.472;2023-04-03T06:57:33;92.85;;;5.15;;
4895;SDS011;2463;49.948;8.472;2023-04-03T07:00:00;91.80;;;5.50;;
4895;SDS011;2463;49.948;8.472;2023-04-03T07:02:26;90.35;;;5.10;;
4895;SDS011;2463;49.948;8.472;2023-04-03T07:04:53;92.13;;;5.53;;
4895;SDS011;2463;49.948;8.472;2023-04-03T07:07:21;89.63;;;5.20;;
4895;SDS011;2463;49.948;8.472;2023-04-03T07:09:48;91.78;;;5.28;;
4895;SDS011;2463;49.948;8.472;2023-04-03T07:12:15;90.90;;;5.88;;
4895;SDS011;2463;49.948;8.472;2023-04-03T07:14:42;91.95;;;5.32;;
4895;SDS011;2463;49.948;8.472;2023-04-03T07:17:09;93.82;;;5.43;;
4895;SDS011;2463;49.948;8.472;2023-04-03T07:19:36;90.65;;;5.32;;
4895;SDS011;2463;49.948;8.472;2023-04-03T07:22:03;94.97;;;4.88;;
4895;SDS011;2463;49.948;8.472;2023-04-03T07:24:29;92.32;;;5.05;;
4895;SDS011;2463;49.948;8.472;2023-04-03T07:26:56;90.72;;;4.78;;
4895;SDS011;2463;49.948;8.472;2023-04-03T07:29:23;89.88;;;4.57;;
4895;SDS011;2463;49.948;8.472;2023-04-03T07:31:49;90.40;;;4.30;;
4895;SDS011;2463;49.948;8.472;2023-04-03T07:34:16;86.85;;;4.07;;
4895;SDS011;2463;49.948;8.472;2023-04-03T07:36:43;89.55;;;4.10;;
4895;SDS011;2463;49.948;8.472;2023-04-03T07:39:10;91.00;;;4.55;;
4895;SDS011;2463;49.948;8.472;2023-04-03T07:41:37;91.68;;;5.10;;
4895;SDS011;2463;49.948;8.472;2023-04-03T07:44:04;89.53;;;4.65;;
4895;SDS011;2463;49.948;8.472;2023-04-03T07:46:31;87.72;;;4.18;;
4895;SDS011;2463;49.948;8.472;2023-04-03T07:48:58;86.55;;;3.83;;
4895;SDS011;2463;49.948;8.472;2023-04-03T07:51:25;89.60;;;4.20;;
4895;SDS011;2463;49.948;8.472;2023-04-03T07:53:52;89.35;;;4.05;;
4895;SDS011;2463;49.948;8.472;2023-04-03T07:56:20;87.97;;;4.25;;
4895;SDS011;2463;49.948;8.472;2023-04-03T07:58:46;87.28;;;4.05;;
4895;SDS011;2463;49.948;8.472;2023-04-03T08:01:13;88.03;;;4.30;;
4895;SDS011;2463;49.948;8.472;2023-04-03T08:03:40;87.35;;;4.10;;
4895;SDS011;2463;49.948;8.472;2023-04-03T08:06:08;89.07;;;4.60;;
4895;SDS011;2463;49.948;8.472;2023-04-03T08:08:41;89.20;;;4.70;;
4895;SDS011;2463;49.948;8.472;2023-04-03T08:11:09;89.85;;;4.45;;
4895;SDS011;2463;49.948;8.472;2023-04-03T08:13:36;85.50;;;3.60;;
4895;SDS011;2463;49.948;8.472;2023-04-03T08:16:07;85.80;;;4.18;;
4895;SDS011;2463;49.948;8.472;2023-04-03T08:18:38;84.60;;;3.70;;
4895;SDS011;2463;49.948;8.472;2023-04-03T08:21:06;85.03;;;3.95;;
4895;SDS011;2463;49.948;8.472;2023-04-03T08:23:34;83.80;;;3.75;;
4895;SDS011;2463;49.948;8.472;2023-04-03T08:26:05;85.93;;;3.92;;
4895;SDS011;2463;49.948;8.472;2023-04-03T08:28:36;84.22;;;3.75;;
4895;SDS011;2463;49.948;8.472;2023-04-03T08:31:07;84.07;;;3.88;;
4895;SDS011;2463;49.948;8.472;2023-04-03T08:33:39;87.10;;;4.20;;
4895;SDS011;2463;49.948;8.472;2023-04-03T08:36:07;85.78;;;4.13;;
4895;SDS011;2463;49.948;8.472;2023-04-03T08:38:41;83.97;;;3.80;;
4895;SDS011;2463;49.948;8.472;2023-04-03T08:41:16;81.78;;;3.60;;
4895;SDS011;2463;49.948;8.472;2023-04-03T08:44:04;87.22;;;4.30;;
4895;SDS011;2463;49.948;8.472;2023-04-03T08:46:56;84.10;;;3.72;;
4895;SDS011;2463;49.948;8.472;2023-04-03T08:49:42;84.53;;;3.63;;
4895;SDS011;2463;49.948;8.472;2023-04-03T08:52:18;86.35;;;3.65;;
4895;SDS011;2463;49.948;8.472;2023-04-03T08:54:53;85.00;;;3.80;;
4895;SDS011;2463;49.948;8.472;2023-04-03T08:57:28;83.07;;;3.80;;
4895;SDS011;2463;49.948;8.472;2023-04-03T09:00:06;83.88;;;3.75;;
4895;SDS011;2463;49.948;8.472;2023-04-03T09:02:41;83.47;;;3.97;;
4895;SDS011;2463;49.948;8.472;2023-04-03T09:05:17;86.18;;;3.80;;
4895;SDS011;2463;49.948;8.472;2023-04-03T09:07:59;85.82;;;3.63;;
4895;SDS011;2463;49.948;8.472;2023-04-03T09:10:30;86.75;;;3.70;;
4895;SDS011;2463;49.948;8.472;2023-04-03T09:13:21;85.35;;;4.15;;
4895;SDS011;2463;49.948;8.472;2023-04-03T09:15:51;82.72;;;3.60;;
4895;SDS011;2463;49.948;8.472;2023-04-03T09:18:20;83.63;;;3.40;;
4895;SDS011;2463;49.948;8.472;2023-04-03T09:26:16;85.07;;;3.60;;
4895;SDS011;2463;49.948;8.472;2023-04-03T09:28:44;85.07;;;3.80;;
4895;SDS011;2463;49.948;8.472;2023-04-03T09:31:18;84.35;;;3.67;;
4895;SDS011;2463;49.948;8.472;2023-04-03T09:33:50;85.18;;;3.72;;
4895;SDS011;2463;49.948;8.472;2023-04-03T09:39:10;85.97;;;3.80;;
4895;SDS011;2463;49.948;8.472;2023-04-03T09:41:39;85.65;;;3.95;;
4895;SDS011;2463;49.948;8.472;2023-04-03T09:44:25;83.93;;;3.75;;
4895;SDS011;2463;49.948;8.472;2023-04-03T09:46:54;85.18;;;3.40;;
4895;SDS011;2463;49.948;8.472;2023-04-03T09:49:21;85.32;;;3.47;;
4895;SDS011;2463;49.948;8.472;2023-04-03T09:51:47;85.97;;;3.80;;
4895;SDS011;2463;49.948;8.472;2023-04-03T09:57:13;87.32;;;4.32;;
4895;SDS011;2463;49.948;8.472;2023-04-03T09:59:44;86.95;;;4.82;;
4895;SDS011;2463;49.948;8.472;2023-04-03T10:04:47;87.22;;;4.30;;
4895;SDS011;2463;49.948;8.472;2023-04-03T10:07:37;89.20;;;4.22;;
4895;SDS011;2463;49.948;8.472;2023-04-03T10:10:17;91.32;;;4.82;;
4895;SDS011;2463;49.948;8.472;2023-04-03T10:12:46;91.45;;;4.30;;
4895;SDS011;2463;49.948;8.472;2023-04-03T10:15:14;89.55;;;5.18;;
4895;SDS011;2463;49.948;8.472;2023-04-03T10:26:27;91.82;;;5.00;;
4895;SDS011;2463;49.948;8.472;2023-04-03T10:31:53;87.90;;;4.90;;
4895;SDS011;2463;49.948;8.472;2023-04-03T10:34:37;89.68;;;4.63;;
4895;SDS011;2463;49.948;8.472;2023-04-03T10:43:27;86.82;;;4.30;;
4895;SDS011;2463;49.948;8.472;2023-04-03T10:54:11;86.43;;;4.18;;
4895;SDS011;2463;49.948;8.472;2023-04-03T10:57:03;88.07;;;4.40;;
4895;SDS011;2463;49.948;8.472;2023-04-03T10:59:40;88.32;;;5.00;;
4895;SDS011;2463;49.948;8.472;2023-04-03T11:05:02;87.43;;;4.43;;
4895;SDS011;2463;49.948;8.472;2023-04-03T11:07:47;87.07;;;4.18;;
4895;SDS011;2463;49.948;8.472;2023-04-03T11:10:21;94.45;;;4.45;;
4895;SDS011;2463;49.948;8.472;2023-04-03T11:13:14;90.85;;;4.53;;
4895;SDS011;2463;49.948;8.472;2023-04-03T11:15:47;90.20;;;5.70;;
4895;SDS011;2463;49.948;8.472;2023-04-03T11:20:53;88.82;;;4.80;;
4895;SDS011;2463;49.948;8.472;2023-04-03T11:23:31;88.35;;;4.70;;
4895;SDS011;2463;49.948;8.472;2023-04-03T11:26:15;89.00;;;4.65;;
4895;SDS011;2463;49.948;8.472;2023-04-03T11:28:44;90.22;;;4.90;;
4895;SDS011;2463;49.948;8.472;2023-04-03T11:31:19;88.35;;;4.55;;
4895;SDS011;2463;49.948;8.472;2023-04-03T11:36:51;91.60;;;4.90;;
4895;SDS011;2463;49.948;8.472;2023-04-03T11:39:34;87.53;;;4.70;;
4895;SDS011;2463;49.948;8.472;2023-04-03T11:44:40;87.70;;;4.53;;
4895;SDS011;2463;49.948;8.472;2023-04-03T11:47:08;88.43;;;4.55;;
4895;SDS011;2463;49.948;8.472;2023-04-03T11:49:50;94.75;;;4.70;;
4895;SDS011;2463;49.948;8.472;2023-04-03T11:52:53;89.05;;;4.65;;
4895;SDS011;2463;49.948;8.472;2023-04-03T11:55:56;87.75;;;4.65;;
4895;SDS011;2463;49.948;8.472;2023-04-03T12:05:57;88.15;;;4.60;;
4895;SDS011;2463;49.948;8.472;2023-04-03T12:08:25;88.85;;;4.80;;
4895;SDS011;2463;49.948;8.472;2023-04-03T12:11:14;88.55;;;4.85;;
4895;SDS011;2463;49.948;8.472;2023-04-03T12:29:25;89.60;;;4.72;;
4895;SDS011;2463;49.948;8.472;2023-04-03T12:32:08;87.80;;;4.45;;
4895;SDS011;2463;49.948;8.472;2023-04-03T12:40:57;87.13;;;4.00;;
4895;SDS011;2463;49.948;8.472;2023-04-03T12:46:53;88.32;;;4.30;;
4895;SDS011;2463;49.948;8.472;2023-04-03T12:51:56;90.45;;;4.57;;
4895;SDS011;2463;49.948;8.472;2023-04-03T12:54:30;89.57;;;5.10;;
4895;SDS011;2463;49.948;8.472;2023-04-03T12:57:17;89.18;;;4.45;;
4895;SDS011;2463;49.948;8.472;2023-04-03T12:59:46;88.32;;;4.32;;
4895;SDS011;2463;49.948;8.472;2023-04-03T13:04:47;88.88;;;4.45;;
4895;SDS011;2463;49.948;8.472;2023-04-03T13:07:34;89.72;;;5.00;;
4895;SDS011;2463;49.948;8.472;2023-04-03T13:12:35;89.68;;;4.72;;
4895;SDS011;2463;49.948;8.472;2023-04-03T13:15:14;87.32;;;4.40;;
4895;SDS011;2463;49.948;8.472;2023-04-03T13:17:44;88.43;;;4.10;;
4895;SDS011;2463;49.948;8.472;2023-04-03T13:20:13;97.97;;;4.40;;
4895;SDS011;2463;49.948;8.472;2023-04-03T13:22:55;87.78;;;4.35;;
4895;SDS011;2463;49.948;8.472;2023-04-03T13:25:23;86.47;;;4.30;;
4895;SDS011;2463;49.948;8.472;2023-04-03T13:27:52;87.90;;;4.60;;
4895;SDS011;2463;49.948;8.472;2023-04-03T13:30:38;89.10;;;4.60;;
4895;SDS011;2463;49.948;8.472;2023-04-03T13:33:19;88.85;;;4.40;;
4895;SDS011;2463;49.948;8.472;2023-04-03T13:35:56;89.57;;;4.65;;
4895;SDS011;2463;49.948;8.472;2023-04-03T13:38:31;89.25;;;4.72;;
4895;SDS011;2463;49.948;8.472;2023-04-03T13:41:26;87.70;;;4.55;;
4895;SDS011;2463;49.948;8.472;2023-04-03T13:46:49;88.32;;;4.80;;
4895;SDS011;2463;49.948;8.472;2023-04-03T13:49:41;86.97;;;4.30;;
4895;SDS011;2463;49.948;8.472;2023-04-03T13:52:29;89.20;;;4.93;;
4895;SDS011;2463;49.948;8.472;2023-04-03T13:55:03;86.90;;;4.65;;
4895;SDS011;2463;49.948;8.472;2023-04-03T14:00:49;89.28;;;4.80;;
4895;SDS011;2463;49.948;8.472;2023-04-03T14:03:40;87.18;;;4.30;;
4895;SDS011;2463;49.948;8.472;2023-04-03T14:06:11;87.82;;;4.22;;
4895;SDS011;2463;49.948;8.472;2023-04-03T14:08:41;88.50;;;4.60;;
4895;SDS011;2463;49.948;8.472;2023-04-03T14:11:22;88.35;;;4.47;;
4895;SDS011;2463;49.948;8.472;2023-04-03T14:13:55;88.28;;;4.53;;
4895;SDS011;2463;49.948;8.472;2023-04-03T14:16:28;88.25;;;4.85;;
4895;SDS011;2463;49.948;8.472;2023-04-03T14:18:57;88.60;;;5.03;;
4895;SDS011;2463;49.948;8.472;2023-04-03T14:21:24;88.32;;;5.28;;
4895;SDS011;2463;49.948;8.472;2023-04-03T14:23:51;89.20;;;5.30;;
4895;SDS011;2463;49.948;8.472;2023-04-03T14:26:20;88.78;;;5.20;;
4895;SDS011;2463;49.948;8.472;2023-04-03T14:28:49;88.63;;;5.00;;
4895;SDS011;2463;49.948;8.472;2023-04-03T14:31:18;89.40;;;4.78;;
4895;SDS011;2463;49.948;8.472;2023-04-03T14:33:47;88.32;;;4.88;;
4895;SDS011;2463;49.948;8.472;2023-04-03T14:36:23;91.07;;;5.10;;
4895;SDS011;2463;49.948;8.472;2023-04-03T14:38:53;88.55;;;5.32;;
4895;SDS011;2463;49.948;8.472;2023-04-03T14:41:22;89.88;;;5.20;;
4895;SDS011;2463;49.948;8.472;2023-04-03T14:43:50;89.95;;;5.15;;
4895;SDS011;2463;49.948;8.472;2023-04-03T14:46:19;88.75;;;5.10;;
4895;SDS011;2463;49.948;8.472;2023-04-03T14:49:18;89.38;;;5.20;;
4895;SDS011;2463;49.948;8.472;2023-04-03T14:51:47;89.75;;;4.90;;
4895;SDS011;2463;49.948;8.472;2023-04-03T14:54:15;89.15;;;5.40;;
4895;SDS011;2463;49.948;8.472;2023-04-03T14:56:46;91.15;;;5.60;;
4895;SDS011;2463;49.948;8.472;2023-04-03T14:59:14;90.90;;;5.30;;
4895;SDS011;2463;49.948;8.472;2023-04-03T15:01:41;89.18;;;5.20;;
4895;SDS011;2463;49.948;8.472;2023-04-03T15:04:10;91.15;;;5.20;;
4895;SDS011;2463;49.948;8.472;2023-04-03T15:06:40;88.97;;;5.32;;
4895;SDS011;2463;49.948;8.472;2023-04-03T15:09:15;88.70;;;5.10;;
4895;SDS011;2463;49.948;8.472;2023-04-03T15:11:52;91.25;;;5.22;;
4895;SDS011;2463;49.948;8.472;2023-04-03T15:14:20;91.32;;;5.45;;
4895;SDS011;2463;49.948;8.472;2023-04-03T15:17:03;88.65;;;4.70;;
4895;SDS011;2463;49.948;8.472;2023-04-03T15:19:37;88.63;;;4.80;;
4895;SDS011;2463;49.948;8.472;2023-04-03T15:22:05;89.85;;;5.10;;
4895;SDS011;2463;49.948;8.472;2023-04-03T15:24:33;89.75;;;5.18;;
4895;SDS011;2463;49.948;8.472;2023-04-03T15:26:59;89.95;;;4.93;;
4895;SDS011;2463;49.948;8.472;2023-04-03T15:29:27;91.97;;;4.90;;
4895;SDS011;2463;49.948;8.472;2023-04-03T15:31:54;88.80;;;4.63;;
4895;SDS011;2463;49.948;8.472;2023-04-03T15:34:21;90.20;;;5.13;;
4895;SDS011;2463;49.948;8.472;2023-04-03T15:36:48;89.22;;;5.07;;
4895;SDS011;2463;49.948;8.472;2023-04-03T15:39:19;91.40;;;5.53;;
4895;SDS011;2463;49.948;8.472;2023-04-03T15:41:46;88.45;;;4.57;;
4895;SDS011;2463;49.948;8.472;2023-04-03T15:44:13;89.18;;;4.78;;
4895;SDS011;2463;49.948;8.472;2023-04-03T15:46:44;88.60;;;4.88;;
4895;SDS011;2463;49.948;8.472;2023-04-03T15:49:12;93.60;;;5.00;;
4895;SDS011;2463;49.948;8.472;2023-04-03T15:51:39;90.47;;;5.20;;
4895;SDS011;2463;49.948;8.472;2023-04-03T15:54:06;91.45;;;4.97;;
4895;SDS011;2463;49.948;8.472;2023-04-03T15:56:32;92.90;;;4.90;;
4895;SDS011;2463;49.948;8.472;2023-04-03T15:58:59;90.68;;;5.20;;
4895;SDS011;2463;49.948;8.472;2023-04-03T16:01:26;89.75;;;5.00;;
4895;SDS011;2463;49.948;8.472;2023-04-03T16:03:53;88.85;;;4.85;;
4895;SDS011;2463;49.948;8.472;2023-04-03T16:06:20;90.03;;;5.47;;
4895;SDS011;2463;49.948;8.472;2023-04-03T16:08:47;90.97;;;5.13;;
4895;SDS011;2463;49.948;8.472;2023-04-03T16:11:15;93.43;;;5.20;;
4895;SDS011;2463;49.948;8.472;2023-04-03T16:13:41;91.53;;;5.30;;
4895;SDS011;2463;49.948;8.472;2023-04-03T16:16:09;88.60;;;4.60;;
4895;SDS011;2463;49.948;8.472;2023-04-03T16:18:36;90.03;;;5.10;;
4895;SDS011;2463;49.948;8.472;2023-04-03T16:21:03;89.95;;;4.82;;
4895;SDS011;2463;49.948;8.472;2023-04-03T16:23:32;91.00;;;4.90;;
4895;SDS011;2463;49.948;8.472;2023-04-03T16:25:58;90.35;;;5.13;;
4895;SDS011;2463;49.948;8.472;2023-04-03T16:28:25;93.00;;;5.18;;
4895;SDS011;2463;49.948;8.472;2023-04-03T16:30:52;92.18;;;4.78;;
4895;SDS011;2463;49.948;8.472;2023-04-03T16:33:19;90.13;;;5.07;;
4895;SDS011;2463;49.948;8.472;2023-04-03T16:35:48;90.85;;;4.95;;
4895;SDS011;2463;49.948;8.472;2023-04-03T16:38:16;89.72;;;5.30;;
4895;SDS011;2463;49.948;8.472;2023-04-03T16:40:45;92.72;;;5.00;;
4895;SDS011;2463;49.948;8.472;2023-04-03T16:43:12;90.85;;;4.90;;
4895;SDS011;2463;49.948;8.472;2023-04-03T16:45:38;90.82;;;5.07;;
4895;SDS011;2463;49.948;8.472;2023-04-03T16:48:06;89.80;;;4.75;;
4895;SDS011;2463;49.948;8.472;2023-04-03T16:50:32;92.45;;;4.93;;
4895;SDS011;2463;49.948;8.472;2023-04-03T16:52:59;89.20;;;5.00;;
4895;SDS011;2463;49.948;8.472;2023-04-03T16:55:26;93.20;;;5.00;;
4895;SDS011;2463;49.948;8.472;2023-04-03T16:57:53;92.75;;;5.28;;
4895;SDS011;2463;49.948;8.472;2023-04-03T17:00:20;90.85;;;5.10;;
4895;SDS011;2463;49.948;8.472;2023-04-03T17:02:47;90.22;;;4.65;;
4895;SDS011;2463;49.948;8.472;2023-04-03T17:05:14;90.72;;;4.97;;